sensor_id;sensor_type;location;lat;lon;timestamp;temperature;humidity
69770;SHT30;57282;52.514;13.458;2022-10-16T00:01:47;15.60;84.70
69770;SHT30;57282;52.514;13.458;2022-10-16T00:04:15;15.63;84.63
69770;SHT30;57282;52.514;13.458;2022-10-16T00:06:42;15.61;84.80
69770;SHT30;57282;52.514;13.458;2022-10-16T00:09:09;15.61;84.77
69770;SHT30;57282;52.514;13.458;2022-10-16T00:11:38;15.63;84.74
69770;SHT30;57282;52.514;13.458;2022-10-16T00:14:08;15.66;84.82
69770;SHT30;57282;52.514;13.458;2022-10-16T00:16:36;15.67;84.79
69770;SHT30;57282;52.514;13.458;2022-10-16T00:19:04;15.68;84.89
69770;SHT30;57282;52.514;13.458;2022-10-16T00:21:33;15.68;84.89
69770;SHT30;57282;52.514;13.458;2022-10-16T00:24:02;15.71;84.96
69770;SHT30;57282;52.514;13.458;2022-10-16T00:26:32;15.70;84.97
69770;SHT30;57282;52.514;13.458;2022-10-16T00:29:00;15.73;85.00
69770;SHT30;57282;52.514;13.458;2022-10-16T00:31:28;15.76;84.97
69770;SHT30;57282;52.514;13.458;2022-10-16T00:33:55;15.78;84.99
69770;SHT30;57282;52.514;13.458;2022-10-16T00:36:23;15.76;84.95
69770;SHT30;57282;52.514;13.458;2022-10-16T00:38:54;15.80;85.02
69770;SHT30;57282;52.514;13.458;2022-10-16T00:41:24;15.81;84.89
69770;SHT30;57282;52.514;13.458;2022-10-16T00:43:53;15.81;84.92
69770;SHT30;57282;52.514;13.458;2022-10-16T00:46:23;15.80;85.12
69770;SHT30;57282;52.514;13.458;2022-10-16T00:48:56;15.84;85.12
69770;SHT30;57282;52.514;13.458;2022-10-16T00:51:30;15.84;85.06
69770;SHT30;57282;52.514;13.458;2022-10-16T00:54:02;15.84;85.06
69770;SHT30;57282;52.514;13.458;2022-10-16T00:56:33;15.87;84.96
69770;SHT30;57282;52.514;13.458;2022-10-16T00:59:01;15.87;84.98
69770;SHT30;57282;52.514;13.458;2022-10-16T01:01:34;15.87;84.98
69770;SHT30;57282;52.514;13.458;2022-10-16T01:04:00;15.86;85.07
69770;SHT30;57282;52.514;13.458;2022-10-16T01:06:32;15.86;85.01
69770;SHT30;57282;52.514;13.458;2022-10-16T01:09:16;15.91;84.93
69770;SHT30;57282;52.514;13.458;2022-10-16T01:11:54;15.90;85.03
69770;SHT30;57282;52.514;13.458;2022-10-16T01:14:33;15.91;85.11
69770;SHT30;57282;52.514;13.458;2022-10-16T01:17:10;15.91;85.09
69770;SHT30;57282;52.514;13.458;2022-10-16T01:20:00;15.87;85.03
69770;SHT30;57282;52.514;13.458;2022-10-16T01:22:39;15.90;84.92
69770;SHT30;57282;52.514;13.458;2022-10-16T01:25:19;15.91;85.01
69770;SHT30;57282;52.514;13.458;2022-10-16T01:27:56;15.91;85.07
69770;SHT30;57282;52.514;13.458;2022-10-16T01:30:29;15.90;85.13
69770;SHT30;57282;52.514;13.458;2022-10-16T01:33:01;15.87;85.13
69770;SHT30;57282;52.514;13.458;2022-10-16T01:35:36;15.86;85.14
69770;SHT30;57282;52.514;13.458;2022-10-16T01:38:09;15.88;85.07
69770;SHT30;57282;52.514;13.458;2022-10-16T01:40:45;15.84;85.14
69770;SHT30;57282;52.514;13.458;2022-10-16T01:43:21;15.87;85.27
69770;SHT30;57282;52.514;13.458;2022-10-16T01:45:51;15.90;85.31
69770;SHT30;57282;52.514;13.458;2022-10-16T01:48:19;15.90;85.20
69770;SHT30;57282;52.514;13.458;2022-10-16T01:50:53;15.94;85.54
69770;SHT30;57282;52.514;13.458;2022-10-16T01:53:24;15.91;85.43
69770;SHT30;57282;52.514;13.458;2022-10-16T01:55:54;15.91;85.46
69770;SHT30;57282;52.514;13.458;2022-10-16T01:58:23;15.93;85.45
69770;SHT30;57282;52.514;13.458;2022-10-16T02:00:52;15.95;85.25
69770;SHT30;57282;52.514;13.458;2022-10-16T02:03:21;15.95;85.31
69770;SHT30;57282;52.514;13.458;2022-10-16T02:05:50;15.94;85.22
69770;SHT30;57282;52.514;13.458;2022-10-16T02:08:20;15.93;85.38
69770;SHT30;57282;52.514;13.458;2022-10-16T02:10:48;15.94;85.18
69770;SHT30;57282;52.514;13.458;2022-10-16T02:13:19;15.93;85.26
69770;SHT30;57282;52.514;13.458;2022-10-16T02:15:52;15.94;85.18
69770;SHT30;57282;52.514;13.458;2022-10-16T02:18:19;15.94;85.13
69770;SHT30;57282;52.514;13.458;2022-10-16T02:20:51;15.95;85.26
69770;SHT30;57282;52.514;13.458;2022-10-16T02:23:29;15.97;85.16
69770;SHT30;57282;52.514;13.458;2022-10-16T02:26:06;16.00;85.09
69770;SHT30;57282;52.514;13.458;2022-10-16T02:28:40;16.00;84.91
69770;SHT30;57282;52.514;13.458;2022-10-16T02:31:12;15.98;84.85
69770;SHT30;57282;52.514;13.458;2022-10-16T02:33:45;16.00;84.67
69770;SHT30;57282;52.514;13.458;2022-10-16T02:36:13;16.02;84.53
69770;SHT30;57282;52.514;13.458;2022-10-16T02:38:40;16.04;84.63
69770;SHT30;57282;52.514;13.458;2022-10-16T02:41:08;16.05;84.58
69770;SHT30;57282;52.514;13.458;2022-10-16T02:43:35;16.02;84.64
69770;SHT30;57282;52.514;13.458;2022-10-16T02:46:03;16.05;84.46
69770;SHT30;57282;52.514;13.458;2022-10-16T02:48:29;16.05;84.79
69770;SHT30;57282;52.514;13.458;2022-10-16T02:50:56;16.07;84.44
69770;SHT30;57282;52.514;13.458;2022-10-16T02:53:22;16.09;84.30
69770;SHT30;57282;52.514;13.458;2022-10-16T02:55:49;16.05;84.34
69770;SHT30;57282;52.514;13.458;2022-10-16T02:58:16;16.04;84.39
69770;SHT30;57282;52.514;13.458;2022-10-16T03:00:43;16.04;84.39
69770;SHT30;57282;52.514;13.458;2022-10-16T03:03:11;16.07;84.52
69770;SHT30;57282;52.514;13.458;2022-10-16T03:05:38;16.05;84.24
69770;SHT30;57282;52.514;13.458;2022-10-16T03:08:05;16.07;84.49
69770;SHT30;57282;52.514;13.458;2022-10-16T03:10:31;16.04;84.41
69770;SHT30;57282;52.514;13.458;2022-10-16T03:12:58;16.04;84.27
69770;SHT30;57282;52.514;13.458;2022-10-16T03:15:24;16.04;84.41
69770;SHT30;57282;52.514;13.458;2022-10-16T03:17:54;16.04;84.56
69770;SHT30;57282;52.514;13.458;2022-10-16T03:20:23;16.05;84.57
69770;SHT30;57282;52.514;13.458;2022-10-16T03:22:50;16.04;84.32
69770;SHT30;57282;52.514;13.458;2022-10-16T03:25:16;16.02;84.41
69770;SHT30;57282;52.514;13.458;2022-10-16T03:27:43;16.04;84.49
69770;SHT30;57282;52.514;13.458;2022-10-16T03:30:10;16.01;84.56
69770;SHT30;57282;52.514;13.458;2022-10-16T03:32:37;15.98;84.53
69770;SHT30;57282;52.514;13.458;2022-10-16T03:35:06;16.02;84.48
69770;SHT30;57282;52.514;13.458;2022-10-16T03:37:33;16.01;84.48
69770;SHT30;57282;52.514;13.458;2022-10-16T03:40:00;16.00;84.50
69770;SHT30;57282;52.514;13.458;2022-10-16T03:42:26;15.98;84.61
69770;SHT30;57282;52.514;13.458;2022-10-16T03:44:53;15.97;84.58
69770;SHT30;57282;52.514;13.458;2022-10-16T03:47:20;15.94;84.81
69770;SHT30;57282;52.514;13.458;2022-10-16T03:49:48;15.91;84.80
69770;SHT30;57282;52.514;13.458;2022-10-16T03:52:16;15.90;85.03
69770;SHT30;57282;52.514;13.458;2022-10-16T03:54:43;15.88;84.94
69770;SHT30;57282;52.514;13.458;2022-10-16T03:57:10;15.91;84.75
69770;SHT30;57282;52.514;13.458;2022-10-16T03:59:37;15.94;84.79
69770;SHT30;57282;52.514;13.458;2022-10-16T04:02:03;15.90;84.87
69770;SHT30;57282;52.514;13.458;2022-10-16T04:04:30;15.88;84.88
69770;SHT30;57282;52.514;13.458;2022-10-16T04:06:57;15.87;85.01
69770;SHT30;57282;52.514;13.458;2022-10-16T04:09:24;15.88;85.00
69770;SHT30;57282;52.514;13.458;2022-10-16T04:11:51;15.90;85.02
69770;SHT30;57282;52.514;13.458;2022-10-16T04:14:18;15.88;85.21
69770;SHT30;57282;52.514;13.458;2022-10-16T04:16:44;15.86;85.17
69770;SHT30;57282;52.514;13.458;2022-10-16T04:19:11;15.86;85.00
69770;SHT30;57282;52.514;13.458;2022-10-16T04:21:38;15.84;85.13
69770;SHT30;57282;52.514;13.458;2022-10-16T04:24:05;15.84;85.08
69770;SHT30;57282;52.514;13.458;2022-10-16T04:26:33;15.81;85.18
69770;SHT30;57282;52.514;13.458;2022-10-16T04:28:59;15.81;85.08
69770;SHT30;57282;52.514;13.458;2022-10-16T04:31:26;15.84;85.23
69770;SHT30;57282;52.514;13.458;2022-10-16T04:33:53;15.84;85.28
69770;SHT30;57282;52.514;13.458;2022-10-16T04:36:19;15.77;85.13
69770;SHT30;57282;52.514;13.458;2022-10-16T04:38:46;15.80;85.18
69770;SHT30;57282;52.514;13.458;2022-10-16T04:41:13;15.78;85.22
69770;SHT30;57282;52.514;13.458;2022-10-16T04:43:41;15.77;85.13
69770;SHT30;57282;52.514;13.458;2022-10-16T04:46:07;15.74;85.12
69770;SHT30;57282;52.514;13.458;2022-10-16T04:48:35;15.77;85.12
69770;SHT30;57282;52.514;13.458;2022-10-16T04:51:02;15.76;85.13
69770;SHT30;57282;52.514;13.458;2022-10-16T04:53:28;15.73;85.21
69770;SHT30;57282;52.514;13.458;2022-10-16T04:55:55;15.68;85.04
69770;SHT30;57282;52.514;13.458;2022-10-16T04:58:22;15.68;85.32
69770;SHT30;57282;52.514;13.458;2022-10-16T05:00:50;15.67;85.45
69770;SHT30;57282;52.514;13.458;2022-10-16T05:03:17;15.64;85.43
69770;SHT30;57282;52.514;13.458;2022-10-16T05:05:44;15.60;85.24
69770;SHT30;57282;52.514;13.458;2022-10-16T05:08:13;15.60;85.27
69770;SHT30;57282;52.514;13.458;2022-10-16T05:10:41;15.57;85.39
69770;SHT30;57282;52.514;13.458;2022-10-16T05:13:09;15.51;85.60
69770;SHT30;57282;52.514;13.458;2022-10-16T05:15:36;15.47;85.70
69770;SHT30;57282;52.514;13.458;2022-10-16T05:18:04;15.47;85.94
69770;SHT30;57282;52.514;13.458;2022-10-16T05:20:31;15.50;85.89
69770;SHT30;57282;52.514;13.458;2022-10-16T05:22:57;15.50;86.01
69770;SHT30;57282;52.514;13.458;2022-10-16T05:25:24;15.49;85.84
69770;SHT30;57282;52.514;13.458;2022-10-16T05:27:51;15.47;85.85
69770;SHT30;57282;52.514;13.458;2022-10-16T05:30:18;15.46;85.88
69770;SHT30;57282;52.514;13.458;2022-10-16T05:32:46;15.44;85.99
69770;SHT30;57282;52.514;13.458;2022-10-16T05:35:16;15.43;86.08
69770;SHT30;57282;52.514;13.458;2022-10-16T05:37:43;15.43;85.97
69770;SHT30;57282;52.514;13.458;2022-10-16T05:40:11;15.44;86.11
69770;SHT30;57282;52.514;13.458;2022-10-16T05:42:38;15.43;85.96
69770;SHT30;57282;52.514;13.458;2022-10-16T05:45:07;15.42;86.19
69770;SHT30;57282;52.514;13.458;2022-10-16T05:47:36;15.42;86.06
69770;SHT30;57282;52.514;13.458;2022-10-16T05:50:03;15.42;86.06
69770;SHT30;57282;52.514;13.458;2022-10-16T05:52:32;15.42;85.97
69770;SHT30;57282;52.514;13.458;2022-10-16T05:54:58;15.40;86.02
69770;SHT30;57282;52.514;13.458;2022-10-16T05:57:25;15.46;85.82
69770;SHT30;57282;52.514;13.458;2022-10-16T05:59:51;15.44;85.80
69770;SHT30;57282;52.514;13.458;2022-10-16T06:02:18;15.46;85.74
69770;SHT30;57282;52.514;13.458;2022-10-16T06:04:45;15.43;85.76
69770;SHT30;57282;52.514;13.458;2022-10-16T06:07:11;15.40;85.98
69770;SHT30;57282;52.514;13.458;2022-10-16T06:09:39;15.43;85.86
69770;SHT30;57282;52.514;13.458;2022-10-16T06:12:06;15.39;85.90
69770;SHT30;57282;52.514;13.458;2022-10-16T06:14:33;15.40;86.03
69770;SHT30;57282;52.514;13.458;2022-10-16T06:16:59;15.42;86.00
69770;SHT30;57282;52.514;13.458;2022-10-16T06:19:26;15.40;85.96
69770;SHT30;57282;52.514;13.458;2022-10-16T06:21:53;15.42;85.96
69770;SHT30;57282;52.514;13.458;2022-10-16T06:24:19;15.43;86.02
69770;SHT30;57282;52.514;13.458;2022-10-16T06:26:47;15.44;86.06
69770;SHT30;57282;52.514;13.458;2022-10-16T06:29:14;15.43;85.95
69770;SHT30;57282;52.514;13.458;2022-10-16T06:31:40;15.43;85.85
69770;SHT30;57282;52.514;13.458;2022-10-16T06:34:09;15.46;85.96
69770;SHT30;57282;52.514;13.458;2022-10-16T06:36:37;15.42;86.00
69770;SHT30;57282;52.514;13.458;2022-10-16T06:39:04;15.47;86.02
69770;SHT30;57282;52.514;13.458;2022-10-16T06:41:32;15.47;86.12
69770;SHT30;57282;52.514;13.458;2022-10-16T06:44:00;15.47;85.84
69770;SHT30;57282;52.514;13.458;2022-10-16T06:46:27;15.50;85.96
69770;SHT30;57282;52.514;13.458;2022-10-16T06:48:54;15.49;86.16
69770;SHT30;57282;52.514;13.458;2022-10-16T06:51:22;15.50;86.04
69770;SHT30;57282;52.514;13.458;2022-10-16T06:53:52;15.50;86.08
69770;SHT30;57282;52.514;13.458;2022-10-16T06:56:21;15.53;85.85
69770;SHT30;57282;52.514;13.458;2022-10-16T06:58:50;15.53;85.95
69770;SHT30;57282;52.514;13.458;2022-10-16T07:01:20;15.54;85.93
69770;SHT30;57282;52.514;13.458;2022-10-16T07:03:48;15.54;86.01
69770;SHT30;57282;52.514;13.458;2022-10-16T07:06:16;15.57;85.98
69770;SHT30;57282;52.514;13.458;2022-10-16T07:08:47;15.58;86.08
69770;SHT30;57282;52.514;13.458;2022-10-16T07:11:16;15.58;86.02
69770;SHT30;57282;52.514;13.458;2022-10-16T07:13:45;15.64;85.97
69770;SHT30;57282;52.514;13.458;2022-10-16T07:16:15;15.67;86.00
69770;SHT30;57282;52.514;13.458;2022-10-16T07:18:44;15.71;86.06
69770;SHT30;57282;52.514;13.458;2022-10-16T07:21:14;15.71;86.01
69770;SHT30;57282;52.514;13.458;2022-10-16T07:23:43;15.78;85.93
69770;SHT30;57282;52.514;13.458;2022-10-16T07:26:10;15.80;85.82
69770;SHT30;57282;52.514;13.458;2022-10-16T07:28:37;15.84;85.85
69770;SHT30;57282;52.514;13.458;2022-10-16T07:31:06;15.86;85.90
69770;SHT30;57282;52.514;13.458;2022-10-16T07:33:35;15.88;85.71
69770;SHT30;57282;52.514;13.458;2022-10-16T07:36:05;15.93;85.65
69770;SHT30;57282;52.514;13.458;2022-10-16T07:38:32;15.95;85.63
69770;SHT30;57282;52.514;13.458;2022-10-16T07:41:01;15.97;85.50
69770;SHT30;57282;52.514;13.458;2022-10-16T07:43:29;15.98;85.59
69770;SHT30;57282;52.514;13.458;2022-10-16T07:45:56;16.02;85.59
69770;SHT30;57282;52.514;13.458;2022-10-16T07:48:26;16.04;85.47
69770;SHT30;57282;52.514;13.458;2022-10-16T07:50:57;16.07;85.51
69770;SHT30;57282;52.514;13.458;2022-10-16T07:53:25;16.09;85.24
69770;SHT30;57282;52.514;13.458;2022-10-16T07:55:54;16.12;85.35
69770;SHT30;57282;52.514;13.458;2022-10-16T07:58:23;16.14;85.34
69770;SHT30;57282;52.514;13.458;2022-10-16T08:00:50;16.16;85.20
69770;SHT30;57282;52.514;13.458;2022-10-16T08:03:17;16.16;85.29
69770;SHT30;57282;52.514;13.458;2022-10-16T08:05:43;16.19;85.15
69770;SHT30;57282;52.514;13.458;2022-10-16T08:08:13;16.24;85.08
69770;SHT30;57282;52.514;13.458;2022-10-16T08:10:42;16.26;85.17
69770;SHT30;57282;52.514;13.458;2022-10-16T08:13:09;16.29;85.07
69770;SHT30;57282;52.514;13.458;2022-10-16T08:15:35;16.30;84.90
69770;SHT30;57282;52.514;13.458;2022-10-16T08:18:05;16.32;84.81
69770;SHT30;57282;52.514;13.458;2022-10-16T08:20:32;16.36;84.50
69770;SHT30;57282;52.514;13.458;2022-10-16T08:23:00;16.41;84.52
69770;SHT30;57282;52.514;13.458;2022-10-16T08:25:27;16.43;84.31
69770;SHT30;57282;52.514;13.458;2022-10-16T08:27:55;16.45;84.17
69770;SHT30;57282;52.514;13.458;2022-10-16T08:30:23;16.48;84.29
69770;SHT30;57282;52.514;13.458;2022-10-16T08:32:50;16.52;84.11
69770;SHT30;57282;52.514;13.458;2022-10-16T08:35:17;16.52;83.96
69770;SHT30;57282;52.514;13.458;2022-10-16T08:37:43;16.53;83.88
69770;SHT30;57282;52.514;13.458;2022-10-16T08:40:17;16.56;83.99
69770;SHT30;57282;52.514;13.458;2022-10-16T08:42:53;16.57;83.87
69770;SHT30;57282;52.514;13.458;2022-10-16T08:45:40;16.62;83.86
69770;SHT30;57282;52.514;13.458;2022-10-16T08:48:20;16.60;83.87
69770;SHT30;57282;52.514;13.458;2022-10-16T08:50:53;16.62;83.83
69770;SHT30;57282;52.514;13.458;2022-10-16T08:53:23;16.64;83.50
69770;SHT30;57282;52.514;13.458;2022-10-16T08:55:53;16.66;83.44
69770;SHT30;57282;52.514;13.458;2022-10-16T08:58:23;16.66;83.53
69770;SHT30;57282;52.514;13.458;2022-10-16T09:00:55;16.69;83.51
69770;SHT30;57282;52.514;13.458;2022-10-16T09:03:54;16.69;83.25
69770;SHT30;57282;52.514;13.458;2022-10-16T09:06:41;16.70;83.15
69770;SHT30;57282;52.514;13.458;2022-10-16T09:09:29;16.73;82.91
69770;SHT30;57282;52.514;13.458;2022-10-16T09:12:10;16.81;82.82
69770;SHT30;57282;52.514;13.458;2022-10-16T09:14:52;16.87;82.50
69770;SHT30;57282;52.514;13.458;2022-10-16T09:17:36;16.91;82.09
69770;SHT30;57282;52.514;13.458;2022-10-16T09:20:31;16.99;81.88
69770;SHT30;57282;52.514;13.458;2022-10-16T09:23:17;16.97;81.75
69770;SHT30;57282;52.514;13.458;2022-10-16T09:25:47;17.01;81.73
69770;SHT30;57282;52.514;13.458;2022-10-16T09:28:16;17.03;81.60
69770;SHT30;57282;52.514;13.458;2022-10-16T09:30:45;17.08;81.19
69770;SHT30;57282;52.514;13.458;2022-10-16T09:33:14;17.10;81.03
69770;SHT30;57282;52.514;13.458;2022-10-16T09:35:44;17.08;81.03
69770;SHT30;57282;52.514;13.458;2022-10-16T09:38:25;17.15;81.14
69770;SHT30;57282;52.514;13.458;2022-10-16T09:40:54;17.15;81.12
69770;SHT30;57282;52.514;13.458;2022-10-16T09:43:25;17.21;80.70
69770;SHT30;57282;52.514;13.458;2022-10-16T09:46:01;17.22;80.39
69770;SHT30;57282;52.514;13.458;2022-10-16T09:48:34;17.30;80.13
69770;SHT30;57282;52.514;13.458;2022-10-16T09:51:05;17.30;80.14
69770;SHT30;57282;52.514;13.458;2022-10-16T09:53:43;17.32;80.09
69770;SHT30;57282;52.514;13.458;2022-10-16T09:56:20;17.32;79.87
69770;SHT30;57282;52.514;13.458;2022-10-16T09:58:50;17.38;79.43
69770;SHT30;57282;52.514;13.458;2022-10-16T10:01:20;17.39;79.34
69770;SHT30;57282;52.514;13.458;2022-10-16T10:03:50;17.41;79.09
69770;SHT30;57282;52.514;13.458;2022-10-16T10:06:23;17.46;79.11
69770;SHT30;57282;52.514;13.458;2022-10-16T10:09:00;17.51;78.99
69770;SHT30;57282;52.514;13.458;2022-10-16T10:11:46;17.55;78.69
69770;SHT30;57282;52.514;13.458;2022-10-16T10:14:27;17.65;78.30
69770;SHT30;57282;52.514;13.458;2022-10-16T10:17:10;17.70;77.72
69770;SHT30;57282;52.514;13.458;2022-10-16T10:19:46;17.73;77.67
69770;SHT30;57282;52.514;13.458;2022-10-16T10:22:20;17.73;77.58
69770;SHT30;57282;52.514;13.458;2022-10-16T10:25:15;17.72;77.85
69770;SHT30;57282;52.514;13.458;2022-10-16T10:27:59;17.78;77.36
69770;SHT30;57282;52.514;13.458;2022-10-16T10:30:51;17.79;77.31
69770;SHT30;57282;52.514;13.458;2022-10-16T10:33:30;17.83;77.17
69770;SHT30;57282;52.514;13.458;2022-10-16T10:36:14;17.89;76.98
69770;SHT30;57282;52.514;13.458;2022-10-16T10:38:54;17.96;76.75
69770;SHT30;57282;52.514;13.458;2022-10-16T10:41:36;18.01;75.92
69770;SHT30;57282;52.514;13.458;2022-10-16T10:44:27;18.00;75.95
69770;SHT30;57282;52.514;13.458;2022-10-16T10:47:12;18.03;75.52
69770;SHT30;57282;52.514;13.458;2022-10-16T10:49:58;18.07;75.10
69770;SHT30;57282;52.514;13.458;2022-10-16T10:52:45;18.10;75.00
69770;SHT30;57282;52.514;13.458;2022-10-16T10:55:25;18.17;74.66
69770;SHT30;57282;52.514;13.458;2022-10-16T11:01:14;18.38;72.37
69770;SHT30;57282;52.514;13.458;2022-10-16T11:04:00;18.31;72.06
69770;SHT30;57282;52.514;13.458;2022-10-16T11:06:45;18.43;71.49
69770;SHT30;57282;52.514;13.458;2022-10-16T11:09:17;18.48;70.60
69770;SHT30;57282;52.514;13.458;2022-10-16T11:11:50;18.49;70.37
69770;SHT30;57282;52.514;13.458;2022-10-16T11:14:24;18.49;70.80
69770;SHT30;57282;52.514;13.458;2022-10-16T11:17:00;18.61;70.53
69770;SHT30;57282;52.514;13.458;2022-10-16T11:19:37;18.57;70.78
69770;SHT30;57282;52.514;13.458;2022-10-16T11:22:15;18.68;70.52
69770;SHT30;57282;52.514;13.458;2022-10-16T11:24:49;18.62;70.19
69770;SHT30;57282;52.514;13.458;2022-10-16T11:27:27;18.67;70.15
69770;SHT30;57282;52.514;13.458;2022-10-16T11:30:06;18.62;69.95
69770;SHT30;57282;52.514;13.458;2022-10-16T11:32:49;18.61;70.07
69770;SHT30;57282;52.514;13.458;2022-10-16T11:35:27;18.57;68.85
69770;SHT30;57282;52.514;13.458;2022-10-16T11:38:09;18.62;68.21
69770;SHT30;57282;52.514;13.458;2022-10-16T11:40:43;18.64;68.61
69770;SHT30;57282;52.514;13.458;2022-10-16T11:43:20;18.62;68.79
69770;SHT30;57282;52.514;13.458;2022-10-16T11:45:53;18.68;68.70
69770;SHT30;57282;52.514;13.458;2022-10-16T11:48:26;18.71;67.91
69770;SHT30;57282;52.514;13.458;2022-10-16T11:51:03;18.79;67.33
69770;SHT30;57282;52.514;13.458;2022-10-16T11:53:41;18.76;66.08
69770;SHT30;57282;52.514;13.458;2022-10-16T11:56:13;18.69;65.37
69770;SHT30;57282;52.514;13.458;2022-10-16T11:58:53;18.73;65.87
69770;SHT30;57282;52.514;13.458;2022-10-16T12:01:28;18.78;65.63
69770;SHT30;57282;52.514;13.458;2022-10-16T12:04:06;18.73;65.45
69770;SHT30;57282;52.514;13.458;2022-10-16T12:06:44;18.76;65.33
69770;SHT30;57282;52.514;13.458;2022-10-16T12:09:25;18.79;64.90
69770;SHT30;57282;52.514;13.458;2022-10-16T12:11:53;18.72;65.02
69770;SHT30;57282;52.514;13.458;2022-10-16T12:14:36;18.76;64.20
69770;SHT30;57282;52.514;13.458;2022-10-16T12:17:24;18.79;64.23
69770;SHT30;57282;52.514;13.458;2022-10-16T12:20:00;18.95;62.39
69770;SHT30;57282;52.514;13.458;2022-10-16T12:22:48;18.92;62.93
69770;SHT30;57282;52.514;13.458;2022-10-16T12:25:24;18.95;62.42
69770;SHT30;57282;52.514;13.458;2022-10-16T12:27:55;18.96;62.16
69770;SHT30;57282;52.514;13.458;2022-10-16T12:30:32;18.95;62.41
69770;SHT30;57282;52.514;13.458;2022-10-16T12:33:02;18.99;62.00
69770;SHT30;57282;52.514;13.458;2022-10-16T12:35:33;19.03;61.15
69770;SHT30;57282;52.514;13.458;2022-10-16T12:38:16;19.07;60.98
69770;SHT30;57282;52.514;13.458;2022-10-16T12:40:53;19.12;61.21
69770;SHT30;57282;52.514;13.458;2022-10-16T12:43:35;19.19;60.24
69770;SHT30;57282;52.514;13.458;2022-10-16T12:46:21;19.28;60.27
69770;SHT30;57282;52.514;13.458;2022-10-16T12:48:50;19.43;59.92
69770;SHT30;57282;52.514;13.458;2022-10-16T12:51:23;19.38;60.30
69770;SHT30;57282;52.514;13.458;2022-10-16T12:53:58;19.43;60.15
69770;SHT30;57282;52.514;13.458;2022-10-16T12:56:35;19.51;60.16
69770;SHT30;57282;52.514;13.458;2022-10-16T12:59:18;19.60;58.48
69770;SHT30;57282;52.514;13.458;2022-10-16T13:05:28;19.61;58.90
69770;SHT30;57282;52.514;13.458;2022-10-16T13:08:24;19.61;59.97
69770;SHT30;57282;52.514;13.458;2022-10-16T13:11:06;19.57;60.03
69770;SHT30;57282;52.514;13.458;2022-10-16T13:13:53;19.61;58.89
69770;SHT30;57282;52.514;13.458;2022-10-16T13:16:49;19.64;58.50
69770;SHT30;57282;52.514;13.458;2022-10-16T13:19:32;19.64;58.53
69770;SHT30;57282;52.514;13.458;2022-10-16T13:22:13;19.64;58.61
69770;SHT30;57282;52.514;13.458;2022-10-16T13:24:55;19.71;57.96
69770;SHT30;57282;52.514;13.458;2022-10-16T13:27:39;19.68;58.37
69770;SHT30;57282;52.514;13.458;2022-10-16T13:30:18;19.67;58.33
69770;SHT30;57282;52.514;13.458;2022-10-16T13:32:49;19.79;57.78
69770;SHT30;57282;52.514;13.458;2022-10-16T13:35:21;19.81;57.71
69770;SHT30;57282;52.514;13.458;2022-10-16T13:37:49;19.79;58.12
69770;SHT30;57282;52.514;13.458;2022-10-16T13:40:21;19.81;57.82
69770;SHT30;57282;52.514;13.458;2022-10-16T13:42:50;19.79;57.77
69770;SHT30;57282;52.514;13.458;2022-10-16T13:45:23;19.82;57.48
69770;SHT30;57282;52.514;13.458;2022-10-16T13:48:01;19.77;57.91
69770;SHT30;57282;52.514;13.458;2022-10-16T13:50:29;19.78;57.79
69770;SHT30;57282;52.514;13.458;2022-10-16T13:53:03;19.79;57.71
69770;SHT30;57282;52.514;13.458;2022-10-16T13:55:31;19.79;58.01
69770;SHT30;57282;52.514;13.458;2022-10-16T13:58:05;19.81;58.17
69770;SHT30;57282;52.514;13.458;2022-10-16T14:00:34;19.79;58.14
69770;SHT30;57282;52.514;13.458;2022-10-16T14:03:03;19.79;57.93
69770;SHT30;57282;52.514;13.458;2022-10-16T14:05:32;19.73;58.44
69770;SHT30;57282;52.514;13.458;2022-10-16T14:07:59;19.78;58.07
69770;SHT30;57282;52.514;13.458;2022-10-16T14:10:29;19.70;58.73
69770;SHT30;57282;52.514;13.458;2022-10-16T14:12:58;19.68;58.70
69770;SHT30;57282;52.514;13.458;2022-10-16T14:15:46;19.70;58.03
69770;SHT30;57282;52.514;13.458;2022-10-16T14:18:18;19.67;58.40
69770;SHT30;57282;52.514;13.458;2022-10-16T14:20:48;19.58;58.88
69770;SHT30;57282;52.514;13.458;2022-10-16T14:23:21;19.60;59.11
69770;SHT30;57282;52.514;13.458;2022-10-16T14:25:51;19.55;59.27
69770;SHT30;57282;52.514;13.458;2022-10-16T14:28:20;19.55;59.25
69770;SHT30;57282;52.514;13.458;2022-10-16T14:30:53;19.51;59.42
69770;SHT30;57282;52.514;13.458;2022-10-16T14:33:23;19.50;59.39
69770;SHT30;57282;52.514;13.458;2022-10-16T14:36:01;19.54;59.23
69770;SHT30;57282;52.514;13.458;2022-10-16T14:38:31;19.51;59.40
69770;SHT30;57282;52.514;13.458;2022-10-16T14:40:59;19.51;59.43
69770;SHT30;57282;52.514;13.458;2022-10-16T14:43:32;19.46;59.86
69770;SHT30;57282;52.514;13.458;2022-10-16T14:46:03;19.46;59.72
69770;SHT30;57282;52.514;13.458;2022-10-16T14:48:33;19.47;59.75
69770;SHT30;57282;52.514;13.458;2022-10-16T14:51:00;19.50;59.69
69770;SHT30;57282;52.514;13.458;2022-10-16T14:53:28;19.51;59.19
69770;SHT30;57282;52.514;13.458;2022-10-16T14:55:55;19.54;59.12
69770;SHT30;57282;52.514;13.458;2022-10-16T14:58:22;19.49;59.42
69770;SHT30;57282;52.514;13.458;2022-10-16T15:00:50;19.44;59.79
69770;SHT30;57282;52.514;13.458;2022-10-16T15:03:18;19.44;59.51
69770;SHT30;57282;52.514;13.458;2022-10-16T15:05:45;19.43;59.04
69770;SHT30;57282;52.514;13.458;2022-10-16T15:08:11;19.53;58.86
69770;SHT30;57282;52.514;13.458;2022-10-16T15:10:40;19.53;59.14
69770;SHT30;57282;52.514;13.458;2022-10-16T15:13:14;19.43;59.64
69770;SHT30;57282;52.514;13.458;2022-10-16T15:15:42;19.37;59.65
69770;SHT30;57282;52.514;13.458;2022-10-16T15:18:10;19.37;59.58
69770;SHT30;57282;52.514;13.458;2022-10-16T15:20:41;19.33;59.87
69770;SHT30;57282;52.514;13.458;2022-10-16T15:23:13;19.30;60.11
69770;SHT30;57282;52.514;13.458;2022-10-16T15:25:43;19.33;59.48
69770;SHT30;57282;52.514;13.458;2022-10-16T15:28:11;19.34;59.08
69770;SHT30;57282;52.514;13.458;2022-10-16T15:30:39;19.28;59.39
69770;SHT30;57282;52.514;13.458;2022-10-16T15:33:12;19.28;59.36
69770;SHT30;57282;52.514;13.458;2022-10-16T15:35:42;19.22;59.67
69770;SHT30;57282;52.514;13.458;2022-10-16T15:38:11;19.19;59.58
69770;SHT30;57282;52.514;13.458;2022-10-16T15:40:39;19.19;58.71
69770;SHT30;57282;52.514;13.458;2022-10-16T15:43:05;19.16;58.82
69770;SHT30;57282;52.514;13.458;2022-10-16T15:45:32;19.09;59.23
69770;SHT30;57282;52.514;13.458;2022-10-16T15:47:59;19.12;59.05
69770;SHT30;57282;52.514;13.458;2022-10-16T15:50:26;19.07;58.79